createdAt,value
2023-03-30T00:00:08.128Z,1004.88
2023-03-30T00:05:09.090Z,1004.82
2023-03-30T00:10:08.201Z,1004.71
2023-03-30T00:15:08.225Z,1004.69
2023-03-30T00:20:08.303Z,1004.61
2023-03-30T00:25:08.333Z,1004.72
2023-03-30T00:30:08.383Z,1004.62
2023-03-30T00:35:08.430Z,1004.41
2023-03-30T00:40:08.456Z,1004.3
2023-03-30T00:45:08.468Z,1004.28
2023-03-30T00:50:08.480Z,1004.33
2023-03-30T00:55:08.562Z,1004.24
2023-03-30T01:00:08.655Z,1004.24
2023-03-30T01:05:08.684Z,1004.27
2023-03-30T01:10:08.752Z,1004.26
2023-03-30T01:15:08.856Z,1004.11
2023-03-30T01:20:08.924Z,1004.12
2023-03-30T01:25:08.992Z,1003.94
2023-03-30T01:30:07.972Z,1003.94
2023-03-30T01:35:08.009Z,1003.84
2023-03-30T01:40:08.110Z,1003.86
2023-03-30T01:45:14.144Z,1003.46
2023-03-30T01:50:08.131Z,1003.46
2023-03-30T01:55:08.186Z,1003.61
2023-03-30T02:00:08.241Z,1003.63
2023-03-30T02:05:08.296Z,1003.63
2023-03-30T02:10:08.348Z,1003.68
2023-03-30T02:15:08.384Z,1003.77
2023-03-30T02:20:08.419Z,1003.75
2023-03-30T02:25:08.447Z,1003.68
2023-03-30T02:30:08.508Z,1003.68
2023-03-30T02:35:08.611Z,1003.51
2023-03-30T02:40:08.685Z,1003.4
2023-03-30T02:45:17.904Z,1003.61
2023-03-30T02:50:07.985Z,1003.54
2023-03-30T02:55:07.986Z,1003.56
2023-03-30T03:00:07.995Z,1003.55
2023-03-30T03:05:08.084Z,1003.42
2023-03-30T03:10:08.111Z,1003.35
2023-03-30T03:15:08.153Z,1003.49
2023-03-30T03:20:08.218Z,1003.49
2023-03-30T03:25:08.252Z,1003.44
2023-03-30T03:30:08.358Z,1003.5
2023-03-30T03:35:08.393Z,1003.44
2023-03-30T03:40:08.399Z,1003.46
2023-03-30T03:45:08.502Z,1003.34
2023-03-30T03:50:08.551Z,1003.36
2023-03-30T03:55:08.601Z,1003.43
2023-03-30T04:00:08.640Z,1003.45
2023-03-30T04:05:02.902Z,1003.44
2023-03-30T04:10:02.208Z,1003.31
2023-03-30T04:15:02.462Z,1003.3
2023-03-30T04:20:03.769Z,1003.14
2023-03-30T04:25:03.865Z,1003.14
2023-03-30T04:30:03.119Z,1002.85
2023-03-30T04:35:02.305Z,1002.71
2023-03-30T04:40:02.582Z,1002.81
2023-03-30T04:45:02.778Z,1002.78
2023-03-30T04:50:03.117Z,1002.72
2023-03-30T04:55:02.347Z,1002.72
2023-03-30T05:00:02.547Z,1002.78
2023-03-30T05:05:02.785Z,1002.78
2023-03-30T05:10:02.936Z,1002.73
2023-03-30T05:15:02.189Z,1002.71
2023-03-30T05:20:02.444Z,1002.71
2023-03-30T05:25:02.709Z,1002.71
2023-03-30T05:30:02.921Z,1002.75
2023-03-30T05:35:03.070Z,1002.82
2023-03-30T05:40:02.220Z,1002.81
2023-03-30T05:45:02.484Z,1002.81
2023-03-30T05:50:02.593Z,1002.85
2023-03-30T05:55:02.790Z,1002.9
2023-03-30T06:00:02.954Z,1002.95
2023-03-30T06:05:02.667Z,1002.95
2023-03-30T06:10:02.937Z,1003.07
2023-03-30T06:15:03.444Z,1003.28
2023-03-30T06:20:02.669Z,1003.36
2023-03-30T06:25:02.867Z,1003.3
2023-03-30T06:30:03.301Z,1003.44
2023-03-30T06:35:02.489Z,1003.51
2023-03-30T06:40:02.803Z,1003.49
2023-03-30T06:45:03.345Z,1003.46
2023-03-30T06:50:02.487Z,1003.54
2023-03-30T06:55:02.629Z,1003.63
2023-03-30T07:00:02.879Z,1003.58
2023-03-30T07:05:03.102Z,1003.58
2023-03-30T07:10:02.565Z,1003.63
2023-03-30T07:15:02.771Z,1003.6
2023-03-30T07:20:02.980Z,1003.64
2023-03-30T07:25:02.613Z,1003.83
2023-03-30T07:30:13.850Z,1003.95
2023-03-30T07:35:02.181Z,1003.82
2023-03-30T07:40:02.311Z,1003.95
2023-03-30T07:45:02.424Z,1003.92
2023-03-30T07:50:03.030Z,1003.84
2023-03-30T07:55:02.253Z,1003.87
2023-03-30T08:00:02.563Z,1003.81
2023-03-30T08:05:03.063Z,1003.91
2023-03-30T08:10:02.400Z,1003.87
2023-03-30T08:15:02.722Z,1003.93
2023-03-30T08:20:02.894Z,1004.02
2023-03-30T08:25:03.143Z,1003.95
2023-03-30T08:30:02.377Z,1004.12
2023-03-30T08:35:02.616Z,1004.21
2023-03-30T08:40:02.797Z,1004.26
2023-03-30T08:45:03.001Z,1004.34
2023-03-30T08:50:02.180Z,1004.23
2023-03-30T08:55:02.343Z,1004.3
2023-03-30T09:00:02.617Z,1004.3
2023-03-30T09:05:12.655Z,1004.39
2023-03-30T09:10:02.922Z,1004.4
2023-03-30T09:15:03.012Z,1004.41
2023-03-30T09:20:02.299Z,1004.44
2023-03-30T09:25:02.628Z,1004.47
2023-03-30T09:30:02.845Z,1004.65
2023-03-30T09:35:03.155Z,1004.6
2023-03-30T09:40:02.450Z,1004.61
2023-03-30T09:45:02.590Z,1004.62
2023-03-30T09:50:02.744Z,1004.62
2023-03-30T09:55:03.079Z,1004.64
2023-03-30T10:00:02.284Z,1004.64
2023-03-30T10:05:02.737Z,1004.64
2023-03-30T10:10:03.457Z,1004.64
2023-03-30T10:15:02.778Z,1004.72
2023-03-30T10:20:13.304Z,1004.6
2023-03-30T10:25:03.063Z,1004.78
2023-03-30T10:30:02.306Z,1004.85
2023-03-30T10:35:02.708Z,1004.92
2023-03-30T10:40:03.040Z,1004.95
2023-03-30T10:45:02.205Z,1004.92
2023-03-30T10:50:05.255Z,1004.91
2023-03-30T10:55:02.884Z,1005.05
2023-03-30T11:00:03.287Z,1005.08
2023-03-30T11:05:02.592Z,1005.14
2023-03-30T11:10:02.941Z,1005.1
2023-03-30T11:15:02.276Z,1005.1
2023-03-30T11:20:02.523Z,1005.03
2023-03-30T11:25:02.718Z,1005.07
2023-03-30T11:30:02.958Z,1005.0
2023-03-30T11:35:05.055Z,1005.06
2023-03-30T11:40:02.292Z,1005.17
2023-03-30T11:45:02.754Z,1005.15
2023-03-30T11:50:02.932Z,1005.18
2023-03-30T11:55:04.086Z,1005.06
2023-03-30T12:00:02.686Z,1005.07
2023-03-30T12:05:02.914Z,1004.98
2023-03-30T12:10:04.057Z,1004.98
2023-03-30T12:15:02.197Z,1005.07
2023-03-30T12:20:02.487Z,1005.16
2023-03-30T12:25:03.131Z,1005.27
2023-03-30T12:30:03.663Z,1005.12
2023-03-30T12:35:03.079Z,1005.2
2023-03-30T12:40:02.376Z,1005.05
2023-03-30T12:45:02.652Z,1005.02
2023-03-30T12:50:11.809Z,1005.01
2023-03-30T12:55:03.491Z,1005.01
2023-03-30T13:00:02.694Z,1005.06
2023-03-30T13:05:03.462Z,1005.06
2023-03-30T13:10:04.845Z,1005.21
2023-03-30T13:15:02.583Z,1005.35
2023-03-30T13:20:02.740Z,1005.45
2023-03-30T13:25:02.963Z,1005.4
2023-03-30T13:30:05.645Z,1005.29
2023-03-30T13:35:07.312Z,1005.22
2023-03-30T13:40:03.114Z,1005.09
2023-03-30T13:45:02.410Z,1005.17
2023-03-30T13:50:02.606Z,1005.01
2023-03-30T13:55:02.868Z,1005.0
2023-03-30T14:00:03.069Z,1004.9
2023-03-30T14:05:02.311Z,1004.94
2023-03-30T14:10:02.495Z,1004.98
2023-03-30T14:15:02.820Z,1004.99
2023-03-30T14:20:03.710Z,1004.95
2023-03-30T14:25:02.870Z,1004.95
2023-03-30T14:30:03.134Z,1004.92
2023-03-30T14:35:02.448Z,1004.98
2023-03-30T14:40:02.631Z,1004.96
2023-03-30T14:45:02.902Z,1004.96
2023-03-30T14:50:03.116Z,1005.13
2023-03-30T14:55:08.607Z,1005.22
2023-03-30T15:00:02.237Z,1005.08
2023-03-30T15:05:02.414Z,1005.01
2023-03-30T15:10:02.521Z,1005.03
2023-03-30T15:15:02.693Z,1005.27
2023-03-30T15:20:03.107Z,1005.53
2023-03-30T15:25:02.276Z,1005.53
2023-03-30T15:30:02.870Z,1005.18
2023-03-30T15:35:03.982Z,1005.15
2023-03-30T15:40:02.337Z,1005.2
2023-03-30T15:45:12.423Z,1005.2
2023-03-30T15:50:02.601Z,1005.05
2023-03-30T15:55:12.918Z,1004.97
2023-03-30T16:00:03.109Z,1004.85
2023-03-30T16:05:02.360Z,1004.85
2023-03-30T16:10:02.514Z,1004.93
2023-03-30T16:15:02.722Z,1004.92
2023-03-30T16:20:05.581Z,1004.98
2023-03-30T16:25:02.350Z,1005.0
2023-03-30T16:30:02.489Z,1004.92
2023-03-30T16:35:02.758Z,1005.06
2023-03-30T16:40:03.009Z,1004.87
2023-03-30T16:45:02.220Z,1004.87
2023-03-30T16:50:02.375Z,1005.0
2023-03-30T16:55:02.486Z,1004.92
2023-03-30T17:00:02.624Z,1004.9
2023-03-30T17:05:02.786Z,1004.9
2023-03-30T17:10:03.023Z,1004.89
2023-03-30T17:15:02.387Z,1004.82
2023-03-30T17:20:02.600Z,1004.95
2023-03-30T17:25:02.872Z,1004.88
2023-03-30T17:30:03.408Z,1004.97
2023-03-30T17:35:02.623Z,1004.97
2023-03-30T17:40:02.794Z,1005.03
2023-03-30T17:45:02.964Z,1005.03
2023-03-30T17:50:02.236Z,1004.96
2023-03-30T17:55:02.432Z,1004.99
2023-03-30T18:00:02.643Z,1004.9
2023-03-30T18:05:02.967Z,1004.9
2023-03-30T18:10:02.259Z,1004.9
2023-03-30T18:15:02.454Z,1004.9
2023-03-30T18:20:02.744Z,1005.13
2023-03-30T18:25:02.938Z,1005.1
2023-03-30T18:30:02.137Z,1005.09
2023-03-30T18:35:02.310Z,1005.2
2023-03-30T18:40:02.594Z,1005.25
2023-03-30T18:45:02.832Z,1005.18
2023-03-30T18:50:03.021Z,1005.18
2023-03-30T18:55:02.154Z,1005.34
2023-03-30T19:00:02.417Z,1005.3
2023-03-30T19:05:02.546Z,1005.3
2023-03-30T19:10:02.750Z,1005.33
2023-03-30T19:15:02.981Z,1005.26
2023-03-30T19:20:02.242Z,1005.26
2023-03-30T19:25:02.496Z,1005.26
2023-03-30T19:30:02.749Z,1005.31
2023-03-30T19:35:02.974Z,1005.31
2023-03-30T19:40:02.230Z,1005.32
2023-03-30T19:45:02.407Z,1005.28
2023-03-30T19:50:02.581Z,1005.28
2023-03-30T19:55:02.808Z,1005.28
2023-03-30T20:00:02.919Z,1005.22
2023-03-30T20:05:03.108Z,1005.17
2023-03-30T20:10:02.308Z,1005.26
2023-03-30T20:15:02.506Z,1005.14
2023-03-30T20:20:02.724Z,1005.07
2023-03-30T20:25:02.842Z,1005.04
2023-03-30T20:30:03.027Z,1004.98
2023-03-30T20:35:02.263Z,1005.03
2023-03-30T20:40:03.936Z,1005.03
2023-03-30T20:45:02.340Z,1004.8
2023-03-30T20:50:02.541Z,1004.76
2023-03-30T20:55:02.746Z,1004.73
2023-03-30T21:00:02.997Z,1004.78
2023-03-30T21:05:14.981Z,1004.77
2023-03-30T21:10:08.054Z,1004.73
2023-03-30T21:15:08.092Z,1004.69
2023-03-30T21:20:08.147Z,1004.57
2023-03-30T21:25:08.170Z,1004.53
2023-03-30T21:30:08.240Z,1004.58
2023-03-30T21:35:08.451Z,1004.56
2023-03-30T21:40:08.480Z,1004.56
2023-03-30T21:45:08.541Z,1004.4
2023-03-30T21:50:08.627Z,1004.42
2023-03-30T21:55:08.660Z,1004.28
2023-03-30T22:00:08.729Z,1004.29
2023-03-30T22:05:08.808Z,1004.33
2023-03-30T22:10:08.869Z,1004.14
2023-03-30T22:15:08.914Z,1004.1
2023-03-30T22:20:08.960Z,1004.16
2023-03-30T22:25:08.026Z,1004.21
2023-03-30T22:30:08.095Z,1004.13
2023-03-30T22:35:08.157Z,1004.13
2023-03-30T22:40:08.188Z,1004.04
2023-03-30T22:45:08.261Z,1003.99
2023-03-30T22:50:08.288Z,1003.88
2023-03-30T22:55:08.312Z,1003.8
2023-03-30T23:01:12.444Z,1003.79
2023-03-30T23:05:08.573Z,1003.79
2023-03-30T23:10:08.837Z,1003.66
2023-03-30T23:15:08.899Z,1003.59
2023-03-30T23:20:08.942Z,1003.52
2023-03-30T23:25:07.998Z,1003.44
2023-03-30T23:30:08.029Z,1003.39
2023-03-30T23:35:08.213Z,1003.32
2023-03-30T23:40:08.225Z,1003.09
2023-03-30T23:45:08.262Z,1003.03
2023-03-30T23:50:08.271Z,1002.97
2023-03-30T23:55:08.353Z,1002.97
